createdAt,value
2022-10-16T00:01:25.377Z,12.30
2022-10-16T00:03:53.323Z,12.30
2022-10-16T00:06:22.894Z,12.30
2022-10-16T00:08:51.599Z,12.30
2022-10-16T00:11:30.152Z,12.30
2022-10-16T00:13:59.732Z,12.40
2022-10-16T00:16:27.771Z,12.40
2022-10-16T00:18:55.674Z,12.40
2022-10-16T00:21:26.352Z,12.40
2022-10-16T00:23:56.944Z,12.30
2022-10-16T00:26:24.941Z,12.30
2022-10-16T00:28:53.135Z,12.40
2022-10-16T00:31:22.826Z,12.40
2022-10-16T00:33:50.551Z,12.30
2022-10-16T00:36:21.442Z,12.40
2022-10-16T00:38:54.043Z,12.40
2022-10-16T00:41:23.236Z,12.40
2022-10-16T00:43:53.587Z,12.50
2022-10-16T00:46:22.705Z,12.40
2022-10-16T00:49:01.844Z,12.50
2022-10-16T00:51:51.140Z,12.50
2022-10-16T00:54:22.663Z,12.50
2022-10-16T00:56:51.031Z,12.60
2022-10-16T00:59:25.942Z,12.60
2022-10-16T01:01:54.606Z,12.60
2022-10-16T01:04:22.814Z,12.60
2022-10-16T01:07:03.005Z,12.60
2022-10-16T01:09:53.648Z,12.70
2022-10-16T01:12:47.120Z,12.60
2022-10-16T01:18:40.304Z,12.70
2022-10-16T01:21:30.467Z,12.70
2022-10-16T01:24:12.683Z,12.70
2022-10-16T01:26:52.058Z,12.70
2022-10-16T01:29:28.028Z,12.70
2022-10-16T01:32:00.132Z,12.70
2022-10-16T01:34:43.000Z,12.60
2022-10-16T01:37:19.591Z,12.60
2022-10-16T01:39:51.404Z,12.70
2022-10-16T01:42:24.305Z,12.60
2022-10-16T01:44:53.518Z,12.60
2022-10-16T01:47:25.424Z,12.70
2022-10-16T01:49:54.237Z,12.70
2022-10-16T01:52:26.371Z,12.70
2022-10-16T01:54:57.170Z,12.70
2022-10-16T01:57:27.159Z,12.80
2022-10-16T01:59:59.587Z,12.80
2022-10-16T02:02:30.910Z,12.90
2022-10-16T02:05:11.706Z,12.90
2022-10-16T02:07:39.135Z,12.90
2022-10-16T02:10:06.665Z,12.90
2022-10-16T02:12:36.381Z,12.80
2022-10-16T02:15:04.305Z,12.70
2022-10-16T02:17:31.939Z,12.60
2022-10-16T02:20:01.126Z,12.50
2022-10-16T02:22:37.405Z,12.50
2022-10-16T02:25:10.977Z,12.40
2022-10-16T02:27:53.266Z,12.40
2022-10-16T02:30:26.923Z,12.30
2022-10-16T02:32:56.310Z,12.30
2022-10-16T02:35:25.588Z,12.20
2022-10-16T02:37:54.004Z,12.20
2022-10-16T02:40:24.505Z,12.20
2022-10-16T02:42:54.581Z,12.20
2022-10-16T02:45:22.834Z,12.20
2022-10-16T02:47:50.502Z,12.10
2022-10-16T02:50:18.400Z,12.10
2022-10-16T02:52:46.311Z,12.10
2022-10-16T02:55:13.738Z,12.10
2022-10-16T02:57:41.483Z,12.10
2022-10-16T03:00:11.666Z,12.10
2022-10-16T03:02:38.927Z,12.10
2022-10-16T03:05:06.743Z,12.20
2022-10-16T03:07:34.250Z,12.10
2022-10-16T03:10:01.746Z,12.10
2022-10-16T03:12:29.998Z,12.00
2022-10-16T03:14:58.419Z,12.00
2022-10-16T03:17:26.404Z,12.00
2022-10-16T03:19:53.982Z,12.00
2022-10-16T03:22:21.412Z,12.00
2022-10-16T03:24:48.893Z,12.00
2022-10-16T03:27:16.246Z,12.00
2022-10-16T03:29:43.529Z,12.00
2022-10-16T03:32:10.908Z,12.00
2022-10-16T03:34:38.159Z,12.00
2022-10-16T03:37:05.545Z,12.00
2022-10-16T03:39:33.098Z,11.90
2022-10-16T03:42:00.360Z,11.90
2022-10-16T03:44:27.737Z,11.90
2022-10-16T03:46:55.059Z,11.80
2022-10-16T03:49:22.497Z,11.90
2022-10-16T03:51:49.955Z,11.90
2022-10-16T03:54:17.226Z,11.90
2022-10-16T03:56:44.498Z,11.90
2022-10-16T03:59:11.856Z,11.90
2022-10-16T04:01:39.170Z,11.90
2022-10-16T04:04:06.605Z,11.90
2022-10-16T04:06:33.915Z,11.90
2022-10-16T04:09:01.170Z,11.90
2022-10-16T04:11:28.520Z,11.90
2022-10-16T04:13:56.249Z,11.80
2022-10-16T04:16:23.583Z,11.90
2022-10-16T04:18:50.853Z,11.90
2022-10-16T04:21:18.393Z,11.90
2022-10-16T04:23:45.754Z,11.90
2022-10-16T04:26:13.118Z,11.80
2022-10-16T04:28:41.188Z,11.90
2022-10-16T04:31:08.659Z,11.90
2022-10-16T04:33:36.280Z,11.90
2022-10-16T04:36:04.994Z,11.90
2022-10-16T04:38:32.439Z,11.90
2022-10-16T04:41:01.190Z,11.80
2022-10-16T04:45:57.545Z,11.80
2022-10-16T04:48:25.117Z,11.80
2022-10-16T04:50:54.574Z,11.70
2022-10-16T04:53:23.359Z,11.70
2022-10-16T04:55:51.623Z,11.70
2022-10-16T04:58:19.047Z,11.70
2022-10-16T05:00:47.753Z,11.70
2022-10-16T05:03:15.238Z,11.70
2022-10-16T05:05:46.885Z,11.70
2022-10-16T05:08:15.432Z,11.70
2022-10-16T05:10:44.132Z,11.70
2022-10-16T05:13:11.924Z,11.70
2022-10-16T05:15:39.165Z,11.70
2022-10-16T05:18:06.614Z,11.70
2022-10-16T05:20:34.239Z,11.70
2022-10-16T05:23:01.722Z,11.80
2022-10-16T05:25:29.283Z,11.80
2022-10-16T05:27:56.738Z,11.80
2022-10-16T05:30:26.621Z,11.80
2022-10-16T05:32:53.933Z,11.80
2022-10-16T05:35:21.919Z,11.80
2022-10-16T05:37:49.242Z,11.70
2022-10-16T05:40:17.803Z,11.80
2022-10-16T05:42:45.306Z,11.70
2022-10-16T05:45:13.426Z,11.70
2022-10-16T05:47:41.193Z,11.70
2022-10-16T05:50:08.944Z,11.70
2022-10-16T05:52:36.162Z,11.70
2022-10-16T05:55:04.078Z,11.60
2022-10-16T05:57:31.349Z,11.60
2022-10-16T05:59:58.620Z,11.60
2022-10-16T06:02:25.992Z,11.50
2022-10-16T06:04:56.602Z,11.60
2022-10-16T06:07:24.469Z,11.60
2022-10-16T06:09:53.139Z,11.60
2022-10-16T06:12:20.712Z,11.60
2022-10-16T06:14:48.165Z,11.60
2022-10-16T06:17:16.496Z,11.60
2022-10-16T06:19:44.003Z,11.50
2022-10-16T06:22:11.389Z,11.50
2022-10-16T06:24:38.668Z,11.50
2022-10-16T06:27:06.851Z,11.50
2022-10-16T06:29:34.316Z,11.50
2022-10-16T06:32:01.620Z,11.40
2022-10-16T06:34:28.921Z,11.40
2022-10-16T06:36:56.322Z,11.50
2022-10-16T06:39:23.639Z,11.40
2022-10-16T06:41:51.131Z,11.40
2022-10-16T06:44:18.561Z,11.40
2022-10-16T06:46:45.846Z,11.40
2022-10-16T06:49:13.194Z,11.40
2022-10-16T06:51:43.438Z,11.40
2022-10-16T06:54:11.170Z,11.40
2022-10-16T06:56:38.743Z,11.40
2022-10-16T06:59:06.145Z,11.40
2022-10-16T07:01:33.884Z,11.40
2022-10-16T07:04:02.893Z,11.40
2022-10-16T07:06:34.563Z,11.40
2022-10-16T07:09:05.071Z,11.40
2022-10-16T07:11:32.633Z,11.40
2022-10-16T07:14:00.470Z,11.40
2022-10-16T07:16:30.436Z,11.50
2022-10-16T07:19:00.774Z,11.50
2022-10-16T07:21:32.465Z,11.60
2022-10-16T07:24:02.159Z,11.60
2022-10-16T07:26:32.084Z,11.60
2022-10-16T07:28:59.905Z,11.60
2022-10-16T07:31:28.182Z,11.70
2022-10-16T07:33:55.864Z,11.70
2022-10-16T07:36:23.537Z,11.80
2022-10-16T07:38:52.956Z,11.80
2022-10-16T07:41:23.439Z,11.90
2022-10-16T07:43:52.921Z,11.90
2022-10-16T07:46:22.218Z,12.00
2022-10-16T07:48:50.236Z,12.00
2022-10-16T07:51:19.460Z,12.00
2022-10-16T07:53:47.826Z,12.00
2022-10-16T07:56:16.847Z,12.00
2022-10-16T07:58:44.428Z,12.10
2022-10-16T08:01:14.457Z,12.10
2022-10-16T08:03:47.176Z,12.10
2022-10-16T08:06:14.626Z,12.10
2022-10-16T08:08:42.274Z,12.20
2022-10-16T08:11:10.030Z,12.20
2022-10-16T08:13:37.927Z,12.20
2022-10-16T08:16:08.998Z,12.20
2022-10-16T08:18:37.427Z,12.20
2022-10-16T08:21:06.255Z,12.10
2022-10-16T08:23:34.496Z,12.10
2022-10-16T08:26:08.129Z,12.10
2022-10-16T08:28:36.504Z,12.00
2022-10-16T08:31:11.069Z,12.00
2022-10-16T08:33:40.352Z,12.00
2022-10-16T08:36:07.863Z,12.00
2022-10-16T08:38:35.432Z,12.10
2022-10-16T08:41:27.249Z,12.10
2022-10-16T08:44:06.821Z,12.20
2022-10-16T08:47:01.890Z,12.30
2022-10-16T08:49:30.730Z,12.30
2022-10-16T08:51:58.478Z,12.40
2022-10-16T08:54:45.977Z,12.50
2022-10-16T08:57:23.254Z,12.50
2022-10-16T08:59:52.820Z,12.60
2022-10-16T09:02:28.301Z,12.70
2022-10-16T09:04:56.946Z,12.70
2022-10-16T09:07:47.779Z,12.80
2022-10-16T09:10:18.232Z,12.80
2022-10-16T09:13:09.518Z,12.90
2022-10-16T09:15:40.814Z,13.00
2022-10-16T09:18:41.847Z,13.00
2022-10-16T09:21:29.885Z,13.10
2022-10-16T09:24:09.484Z,13.20
2022-10-16T09:26:36.818Z,13.30
2022-10-16T09:29:04.351Z,13.30
2022-10-16T09:31:31.698Z,13.40
2022-10-16T09:34:07.372Z,13.40
2022-10-16T09:36:45.883Z,13.50
2022-10-16T09:39:13.327Z,13.60
2022-10-16T09:41:43.217Z,13.70
2022-10-16T09:44:22.539Z,13.80
2022-10-16T09:46:49.971Z,13.90
2022-10-16T09:49:26.639Z,14.00
2022-10-16T09:52:13.724Z,14.00
2022-10-16T09:54:59.054Z,14.10
2022-10-16T09:57:27.438Z,14.20
2022-10-16T09:59:59.138Z,14.20
2022-10-16T10:02:37.816Z,14.20
2022-10-16T10:05:23.444Z,14.20
2022-10-16T10:07:59.170Z,14.30
2022-10-16T10:10:29.428Z,14.30
2022-10-16T10:12:57.896Z,14.50
2022-10-16T10:15:27.744Z,14.50
2022-10-16T10:17:57.093Z,14.50
2022-10-16T10:20:28.765Z,14.60
2022-10-16T10:22:57.109Z,14.70
2022-10-16T10:25:38.114Z,14.70
2022-10-16T10:28:21.986Z,14.70
2022-10-16T10:30:58.430Z,14.70
2022-10-16T10:33:48.108Z,14.80
2022-10-16T10:36:27.189Z,14.90
2022-10-16T10:38:58.019Z,15.00
2022-10-16T10:41:32.077Z,15.10
2022-10-16T10:44:38.932Z,15.30
2022-10-16T10:47:41.535Z,15.40
2022-10-16T10:50:25.316Z,15.50
2022-10-16T10:52:58.619Z,15.60
2022-10-16T10:56:10.357Z,15.70
2022-10-16T10:58:49.902Z,15.80
2022-10-16T11:01:21.182Z,15.90
2022-10-16T11:04:00.687Z,16.10
2022-10-16T11:06:34.274Z,16.20
2022-10-16T11:09:16.553Z,16.40
2022-10-16T11:12:18.601Z,16.60
2022-10-16T11:14:49.526Z,16.80
2022-10-16T11:17:49.309Z,17.00
2022-10-16T11:20:27.151Z,17.10
2022-10-16T11:22:57.519Z,17.30
2022-10-16T11:25:31.208Z,17.40
2022-10-16T11:28:12.974Z,17.50
2022-10-16T11:30:51.102Z,17.60
2022-10-16T11:33:32.559Z,17.60
2022-10-16T11:36:21.746Z,17.70
2022-10-16T11:39:17.406Z,17.60
2022-10-16T11:42:06.439Z,17.70
2022-10-16T11:45:06.094Z,17.70
2022-10-16T11:47:58.028Z,17.80
2022-10-16T11:50:30.164Z,17.90
2022-10-16T11:53:17.092Z,17.90
2022-10-16T11:55:47.276Z,17.90
2022-10-16T11:58:39.987Z,18.00
2022-10-16T12:01:10.282Z,18.20
2022-10-16T12:04:15.287Z,18.20
2022-10-16T12:07:08.086Z,18.50
2022-10-16T12:09:39.467Z,18.80
2022-10-16T12:12:31.513Z,19.00
2022-10-16T12:15:29.871Z,19.20
2022-10-16T12:18:22.882Z,19.20
2022-10-16T12:21:06.120Z,18.90
2022-10-16T12:23:38.291Z,18.80
2022-10-16T12:26:06.696Z,18.60
2022-10-16T12:28:34.869Z,18.50
2022-10-16T12:31:09.371Z,18.40
2022-10-16T12:33:41.000Z,18.30
2022-10-16T12:36:36.258Z,18.30
2022-10-16T12:39:23.047Z,18.30
2022-10-16T12:42:03.213Z,18.00
2022-10-16T12:44:36.054Z,17.90
2022-10-16T12:47:04.051Z,17.80
2022-10-16T12:49:41.080Z,17.80
2022-10-16T12:52:34.450Z,17.70
2022-10-16T12:55:02.093Z,17.50
2022-10-16T12:58:08.129Z,17.50
2022-10-16T13:00:41.259Z,17.50
2022-10-16T13:03:39.856Z,17.40
2022-10-16T13:06:44.549Z,17.40
2022-10-16T13:09:17.480Z,17.40
2022-10-16T13:11:50.807Z,17.30
2022-10-16T13:14:48.602Z,17.40
2022-10-16T13:17:43.268Z,17.30
2022-10-16T13:20:20.126Z,17.30
2022-10-16T13:22:47.616Z,17.30
2022-10-16T13:25:21.085Z,17.30
2022-10-16T13:28:04.583Z,17.10
2022-10-16T13:30:43.881Z,17.10
2022-10-16T13:33:11.106Z,17.10
2022-10-16T13:35:38.409Z,17.10
2022-10-16T13:38:07.182Z,17.10
2022-10-16T13:40:35.660Z,17.20
2022-10-16T13:43:03.253Z,17.20
2022-10-16T13:45:30.846Z,17.40
2022-10-16T13:48:06.341Z,17.50
2022-10-16T13:50:33.744Z,17.60
2022-10-16T13:53:27.109Z,17.60
2022-10-16T13:55:54.454Z,17.70
2022-10-16T13:58:21.718Z,17.70
2022-10-16T14:01:32.509Z,17.70
2022-10-16T14:04:09.577Z,17.80
2022-10-16T14:06:41.142Z,17.80
2022-10-16T14:09:31.160Z,17.80
2022-10-16T14:12:20.315Z,17.70
2022-10-16T14:14:52.970Z,17.80
2022-10-16T14:17:37.124Z,17.80
2022-10-16T14:20:07.400Z,17.80
2022-10-16T14:22:42.065Z,17.70
2022-10-16T14:25:21.695Z,17.80
2022-10-16T14:28:16.495Z,17.70
2022-10-16T14:31:25.435Z,17.60
2022-10-16T14:33:52.784Z,17.70
2022-10-16T14:36:22.174Z,17.60
2022-10-16T14:38:52.465Z,17.60
2022-10-16T14:41:24.624Z,17.50
2022-10-16T14:43:55.448Z,17.50
2022-10-16T14:46:30.709Z,17.40
2022-10-16T14:49:07.324Z,17.30
2022-10-16T14:51:34.657Z,17.30
2022-10-16T14:54:02.854Z,17.20
2022-10-16T14:56:53.762Z,17.10
2022-10-16T14:59:25.901Z,17.10
2022-10-16T15:01:53.425Z,17.10
2022-10-16T15:04:21.009Z,17.00
2022-10-16T15:06:48.546Z,16.90
2022-10-16T15:09:16.168Z,16.90
2022-10-16T15:11:44.118Z,16.90
2022-10-16T15:16:47.425Z,16.70
2022-10-16T15:19:14.704Z,16.60
2022-10-16T15:21:42.114Z,16.60
2022-10-16T15:24:15.320Z,16.50
2022-10-16T15:26:46.976Z,16.50
2022-10-16T15:29:14.490Z,16.40
2022-10-16T15:31:43.846Z,16.40
2022-10-16T15:34:11.433Z,16.40
2022-10-16T15:36:39.575Z,16.30
2022-10-16T15:39:30.345Z,16.30
2022-10-16T15:41:57.599Z,16.30
2022-10-16T15:44:27.097Z,16.30
2022-10-16T15:46:55.918Z,16.20
2022-10-16T15:49:23.239Z,16.20
2022-10-16T15:51:50.799Z,16.20
2022-10-16T15:54:22.793Z,16.20
2022-10-16T15:56:51.372Z,16.10
2022-10-16T15:59:21.404Z,16.10
2022-10-16T16:01:48.733Z,16.10
2022-10-16T16:04:42.381Z,16.10
2022-10-16T16:07:08.182Z,16.00
2022-10-16T16:09:35.577Z,16.00
2022-10-16T16:12:03.079Z,16.00
2022-10-16T16:14:30.463Z,15.90
2022-10-16T16:16:58.914Z,15.90
2022-10-16T16:19:26.640Z,15.90
2022-10-16T16:21:54.011Z,15.80
2022-10-16T16:24:21.475Z,15.80
2022-10-16T16:26:48.747Z,15.80
2022-10-16T16:29:16.880Z,15.80
2022-10-16T16:31:45.285Z,15.70
2022-10-16T16:34:12.684Z,15.70
2022-10-16T16:36:41.166Z,15.70
2022-10-16T16:39:09.041Z,15.60
2022-10-16T16:41:36.312Z,15.60
2022-10-16T16:44:06.000Z,15.60
2022-10-16T16:46:34.213Z,15.50
2022-10-16T16:49:02.293Z,15.50
2022-10-16T16:51:29.960Z,15.50
2022-10-16T16:53:57.384Z,15.40
2022-10-16T16:56:26.361Z,15.40
2022-10-16T16:58:56.466Z,15.40
2022-10-16T17:01:26.395Z,15.40
2022-10-16T17:03:56.040Z,15.30
2022-10-16T17:06:33.220Z,15.30
2022-10-16T17:09:03.632Z,15.30
2022-10-16T17:11:31.165Z,15.30
2022-10-16T17:14:00.893Z,15.30
2022-10-16T17:16:34.409Z,15.30
2022-10-16T17:19:07.509Z,15.30
2022-10-16T17:21:35.554Z,15.30
2022-10-16T17:24:04.969Z,15.20
2022-10-16T17:26:33.130Z,15.20
2022-10-16T17:29:02.057Z,15.20
2022-10-16T17:31:32.947Z,15.20
2022-10-16T17:34:01.226Z,15.20
2022-10-16T17:36:30.969Z,15.20
2022-10-16T17:39:04.662Z,15.20
2022-10-16T17:41:33.492Z,15.10
2022-10-16T17:44:01.303Z,15.10
2022-10-16T17:46:28.757Z,15.10
2022-10-16T17:48:56.776Z,15.00
2022-10-16T17:51:29.638Z,15.00
2022-10-16T17:53:59.334Z,15.00
2022-10-16T17:56:27.939Z,15.00
2022-10-16T17:58:59.818Z,15.00
2022-10-16T18:01:48.672Z,15.00
2022-10-16T18:04:17.459Z,15.00
2022-10-16T18:06:45.691Z,15.00
2022-10-16T18:09:15.826Z,15.00
2022-10-16T18:11:43.143Z,15.00
2022-10-16T18:14:14.077Z,14.90
2022-10-16T18:16:41.890Z,14.90
2022-10-16T18:19:11.326Z,14.90
2022-10-16T18:21:38.845Z,15.00
2022-10-16T18:24:06.307Z,14.90
2022-10-16T18:26:33.597Z,14.90
2022-10-16T18:29:02.267Z,14.90
2022-10-16T18:31:29.635Z,15.00
2022-10-16T18:33:57.982Z,15.00
2022-10-16T18:36:29.504Z,15.00
2022-10-16T18:38:57.894Z,15.00
2022-10-16T18:41:26.031Z,15.00
2022-10-16T18:43:56.253Z,15.00
2022-10-16T18:46:24.753Z,14.90
2022-10-16T18:48:54.212Z,14.90
2022-10-16T18:51:30.514Z,15.00
2022-10-16T18:54:04.292Z,15.00
2022-10-16T18:56:32.225Z,14.90
2022-10-16T18:59:01.318Z,15.00
2022-10-16T19:01:32.432Z,15.00
2022-10-16T19:04:02.448Z,14.90
2022-10-16T19:06:34.047Z,14.90
2022-10-16T19:09:01.384Z,14.90
2022-10-16T19:11:28.849Z,14.90
2022-10-16T19:13:57.337Z,14.90
2022-10-16T19:16:27.393Z,14.90
2022-10-16T19:18:56.353Z,14.90
2022-10-16T19:21:25.609Z,14.80
2022-10-16T19:23:58.390Z,14.90
2022-10-16T19:26:26.861Z,14.90
2022-10-16T19:28:58.391Z,14.80
2022-10-16T19:31:28.037Z,14.80
2022-10-16T19:34:00.485Z,14.80
2022-10-16T19:36:37.904Z,14.80
2022-10-16T19:39:15.683Z,14.90
2022-10-16T19:41:43.780Z,14.90
2022-10-16T19:44:13.507Z,14.90
2022-10-16T19:46:40.804Z,14.90
2022-10-16T19:49:11.396Z,14.90
2022-10-16T19:51:39.243Z,14.80
2022-10-16T19:54:13.962Z,14.90
2022-10-16T19:56:41.671Z,14.90
2022-10-16T19:59:12.987Z,14.90
2022-10-16T20:01:40.460Z,14.90
2022-10-16T20:04:07.902Z,15.00
2022-10-16T20:06:35.275Z,15.00
2022-10-16T20:09:02.848Z,15.00
2022-10-16T20:11:32.738Z,15.00
2022-10-16T20:14:00.763Z,15.00
2022-10-16T20:16:29.438Z,15.00
2022-10-16T20:18:57.853Z,15.10
2022-10-16T20:21:28.050Z,15.10
2022-10-16T20:23:56.020Z,15.10
2022-10-16T20:26:25.845Z,15.10
2022-10-16T20:28:54.398Z,15.10
2022-10-16T20:31:27.369Z,15.10
2022-10-16T20:33:57.027Z,15.20
2022-10-16T20:36:26.551Z,15.20
2022-10-16T20:38:54.049Z,15.20
2022-10-16T20:41:21.578Z,15.20
2022-10-16T20:43:50.149Z,15.30
2022-10-16T20:46:20.637Z,15.30
2022-10-16T20:48:48.397Z,15.30
2022-10-16T20:51:22.297Z,15.30
2022-10-16T20:53:55.289Z,15.30
2022-10-16T20:56:24.087Z,15.30
2022-10-16T20:58:51.682Z,15.30
2022-10-16T21:01:22.431Z,15.30
2022-10-16T21:03:52.673Z,15.30
2022-10-16T21:06:20.450Z,15.30
2022-10-16T21:08:48.651Z,15.30
2022-10-16T21:11:17.158Z,15.30
2022-10-16T21:13:44.716Z,15.30
2022-10-16T21:16:13.854Z,15.30
2022-10-16T21:18:44.538Z,15.30
2022-10-16T21:21:30.278Z,15.40
2022-10-16T21:23:59.114Z,15.40
2022-10-16T21:26:28.388Z,15.40
2022-10-16T21:29:07.244Z,15.40
2022-10-16T21:31:35.281Z,15.40
2022-10-16T21:34:03.568Z,15.40
2022-10-16T21:36:34.937Z,15.40
2022-10-16T21:39:08.128Z,15.40
2022-10-16T21:41:36.594Z,15.50
2022-10-16T21:44:05.110Z,15.60
2022-10-16T21:46:34.120Z,15.60
2022-10-16T21:49:05.920Z,15.60
2022-10-16T21:51:37.040Z,15.60
2022-10-16T21:54:06.757Z,15.60
2022-10-16T21:56:34.637Z,15.60
2022-10-16T21:59:02.552Z,15.60
2022-10-16T22:01:31.180Z,15.60
2022-10-16T22:03:59.046Z,15.60
2022-10-16T22:06:28.342Z,15.60
2022-10-16T22:09:01.745Z,15.60
2022-10-16T22:11:36.433Z,15.70
2022-10-16T22:14:16.315Z,15.70
2022-10-16T22:16:43.730Z,15.80
2022-10-16T22:19:12.922Z,15.80
2022-10-16T22:21:42.142Z,15.80
2022-10-16T22:24:10.073Z,15.80
2022-10-16T22:26:38.720Z,15.80
2022-10-16T22:29:07.339Z,15.80
2022-10-16T22:31:35.047Z,15.80
2022-10-16T22:34:04.381Z,15.80
2022-10-16T22:36:32.240Z,15.80
2022-10-16T22:39:00.156Z,15.80
2022-10-16T22:41:27.418Z,15.80
2022-10-16T22:43:56.025Z,15.80
2022-10-16T22:46:28.935Z,15.80
2022-10-16T22:48:56.576Z,15.80
2022-10-16T22:51:25.281Z,15.80
2022-10-16T22:53:52.570Z,15.80
2022-10-16T22:56:21.819Z,15.90
2022-10-16T22:58:49.585Z,15.90
2022-10-16T23:01:21.547Z,15.90
2022-10-16T23:03:49.108Z,15.90
2022-10-16T23:06:16.437Z,15.90
2022-10-16T23:08:43.702Z,16.00
2022-10-16T23:11:12.886Z,16.00
2022-10-16T23:13:45.103Z,16.00
2022-10-16T23:16:15.252Z,16.00
2022-10-16T23:18:43.429Z,16.10
2022-10-16T23:21:19.704Z,16.10
2022-10-16T23:23:47.233Z,16.20
2022-10-16T23:26:17.794Z,16.30
2022-10-16T23:28:45.513Z,16.30
2022-10-16T23:31:14.912Z,16.40
2022-10-16T23:33:43.446Z,16.50
2022-10-16T23:36:16.617Z,16.50
2022-10-16T23:38:44.397Z,16.60
2022-10-16T23:41:13.059Z,16.60
2022-10-16T23:43:41.072Z,16.70
2022-10-16T23:46:10.409Z,16.70
2022-10-16T23:48:38.340Z,16.70
2022-10-16T23:51:07.436Z,16.80
2022-10-16T23:53:36.143Z,16.80
2022-10-16T23:56:03.651Z,16.80
2022-10-16T23:58:31.164Z,16.80
